Berlin, South Africa
Current Conditions -  °F | °C
As of 9:12 PM on Monday 24 Nov 2014 (Local Time) from FAEL Reporting Station
Moderate Rain Moderate Rain  
Wind Chill: 66°   Ceiling: 1200
Heat Index: 66°   Visibility: 5mi
Dew Point: 64°   Wind: 8mph
Humidity: 94%   Direction: 100°E
Pressure: 30.15"   Gusts: NA
Location:  32.88°S, 27.58°E
Report Text: FAEL 241912Z 10007KT 8000 RA BKN012 BKN017 OVC025 19/18 Q1021
Loading
Personal Weather Stations






























Interactive Weather Map New forecast layout! Learn more

10-Day Weather Forecast

Advertisements
Track Severe Weather on mobile